sensor_id;sensor_type;location;lat;lon;timestamp;pressure;altitude;pressure_sealevel;temperature;humidity
47897;BME280;39629;51.400;5.494;2022-11-25T00:01:04;100776.50;;;9.14;100.00
47897;BME280;39629;51.400;5.494;2022-11-25T00:06:08;100765.13;;;9.12;100.00
47897;BME280;39629;51.400;5.494;2022-11-25T00:11:10;100766.84;;;9.12;100.00
47897;BME280;39629;51.400;5.494;2022-11-25T00:16:15;100772.13;;;9.24;100.00
47897;BME280;39629;51.400;5.494;2022-11-25T00:21:19;100766.88;;;9.15;100.00
47897;BME280;39629;51.400;5.494;2022-11-25T00:26:22;100757.25;;;9.12;100.00
47897;BME280;39629;51.400;5.494;2022-11-25T00:31:27;100751.09;;;9.10;100.00
47897;BME280;39629;51.400;5.494;2022-11-25T00:36:30;100759.00;;;9.07;100.00
47897;BME280;39629;51.400;5.494;2022-11-25T00:41:32;100746.72;;;9.06;100.00
47897;BME280;39629;51.400;5.494;2022-11-25T00:46:55;100743.22;;;9.12;100.00
47897;BME280;39629;51.400;5.494;2022-11-25T00:51:57;100737.97;;;9.13;100.00
47897;BME280;39629;51.400;5.494;2022-11-25T00:56:59;100741.50;;;9.22;100.00
47897;BME280;39629;51.400;5.494;2022-11-25T01:02:04;100751.13;;;9.09;100.00
47897;BME280;39629;51.400;5.494;2022-11-25T01:07:06;100758.16;;;9.19;100.00
47897;BME280;39629;51.400;5.494;2022-11-25T01:12:08;100755.53;;;9.20;100.00
47897;BME280;39629;51.400;5.494;2022-11-25T01:17:11;100756.34;;;9.12;100.00
47897;BME280;39629;51.400;5.494;2022-11-25T01:22:13;100751.09;;;9.10;100.00
47897;BME280;39629;51.400;5.494;2022-11-25T01:27:16;100752.91;;;9.19;100.00
47897;BME280;39629;51.400;5.494;2022-11-25T01:32:19;100767.75;;;9.22;100.00
47897;BME280;39629;51.400;5.494;2022-11-25T01:37:20;100767.78;;;9.32;100.00
47897;BME280;39629;51.400;5.494;2022-11-25T01:42:27;100769.53;;;9.30;100.00
47897;BME280;39629;51.400;5.494;2022-11-25T01:47:30;100775.66;;;9.28;100.00
47897;BME280;39629;51.400;5.494;2022-11-25T01:52:35;100775.66;;;9.31;100.00
47897;BME280;39629;51.400;5.494;2022-11-25T01:57:41;100794.94;;;9.36;100.00
47897;BME280;39629;51.400;5.494;2022-11-25T02:02:45;100802.81;;;9.41;100.00
47897;BME280;39629;51.400;5.494;2022-11-25T02:07:48;100817.66;;;9.28;100.00
47897;BME280;39629;51.400;5.494;2022-11-25T02:12:52;100815.03;;;9.32;100.00
47897;BME280;39629;51.400;5.494;2022-11-25T02:17:55;100821.19;;;9.39;100.00
47897;BME280;39629;51.400;5.494;2022-11-25T02:23:01;100822.94;;;9.45;100.00
47897;BME280;39629;51.400;5.494;2022-11-25T02:28:08;100839.56;;;9.33;100.00
47897;BME280;39629;51.400;5.494;2022-11-25T02:33:12;100845.69;;;9.29;100.00
47897;BME280;39629;51.400;5.494;2022-11-25T02:38:15;100852.66;;;9.19;100.00
47897;BME280;39629;51.400;5.494;2022-11-25T02:43:19;100855.25;;;9.13;100.00
47897;BME280;39629;51.400;5.494;2022-11-25T02:48:21;100887.56;;;8.99;100.00
47897;BME280;39629;51.400;5.494;2022-11-25T02:53:23;100870.88;;;8.90;100.00
47897;BME280;39629;51.400;5.494;2022-11-25T02:58:27;100863.84;;;8.78;100.00
47897;BME280;39629;51.400;5.494;2022-11-25T03:03:28;100846.28;;;8.66;100.00
47897;BME280;39629;51.400;5.494;2022-11-25T03:08:30;100833.16;;;8.61;100.00
47897;BME280;39629;51.400;5.494;2022-11-25T03:13:34;100802.47;;;8.45;100.00
47897;BME280;39629;51.400;5.494;2022-11-25T03:18:35;100790.19;;;8.33;100.00
47897;BME280;39629;51.400;5.494;2022-11-25T03:23:37;100785.75;;;8.27;100.00
47897;BME280;39629;51.400;5.494;2022-11-25T03:28:40;100761.22;;;8.17;100.00
47897;BME280;39629;51.400;5.494;2022-11-25T03:33:42;100766.44;;;8.13;100.00
47897;BME280;39629;51.400;5.494;2022-11-25T03:38:44;100797.88;;;8.10;100.00
47897;BME280;39629;51.400;5.494;2022-11-25T03:43:47;100852.00;;;8.03;100.00
47897;BME280;39629;51.400;5.494;2022-11-25T03:48:49;100864.19;;;7.96;100.00
47897;BME280;39629;51.400;5.494;2022-11-25T03:53:51;100858.91;;;7.93;100.00
47897;BME280;39629;51.400;5.494;2022-11-25T03:58:54;100878.06;;;7.84;100.00
47897;BME280;39629;51.400;5.494;2022-11-25T04:03:56;100875.38;;;7.81;100.00
47897;BME280;39629;51.400;5.494;2022-11-25T04:08:58;100884.91;;;7.72;100.00
47897;BME280;39629;51.400;5.494;2022-11-25T04:14:01;100883.13;;;7.66;100.00
47897;BME280;39629;51.400;5.494;2022-11-25T04:19:03;100905.72;;;7.56;100.00
47897;BME280;39629;51.400;5.494;2022-11-25T04:24:06;100903.91;;;7.52;100.00
47897;BME280;39629;51.400;5.494;2022-11-25T04:29:09;100910.09;;;7.56;100.00
47897;BME280;39629;51.400;5.494;2022-11-25T04:34:11;100917.00;;;7.50;100.00
47897;BME280;39629;51.400;5.494;2022-11-25T04:39:13;100919.59;;;7.46;100.00
47897;BME280;39629;51.400;5.494;2022-11-25T04:44:17;100926.53;;;7.45;100.00
47897;BME280;39629;51.400;5.494;2022-11-25T04:49:19;100939.59;;;7.41;100.00
47897;BME280;39629;51.400;5.494;2022-11-25T04:54:21;100943.94;;;7.37;100.00
47897;BME280;39629;51.400;5.494;2022-11-25T04:59:25;100948.06;;;7.20;100.00
47897;BME280;39629;51.400;5.494;2022-11-25T05:04:46;100950.53;;;7.07;100.00
47897;BME280;39629;51.400;5.494;2022-11-25T05:09:48;100960.03;;;7.02;100.00
47897;BME280;39629;51.400;5.494;2022-11-25T05:14:58;100973.88;;;6.93;100.00
47897;BME280;39629;51.400;5.494;2022-11-25T05:20:00;100978.34;;;7.02;100.00
47897;BME280;39629;51.400;5.494;2022-11-25T05:25:06;100960.84;;;6.98;100.00
47897;BME280;39629;51.400;5.494;2022-11-25T05:30:15;100971.25;;;6.92;100.00
47897;BME280;39629;51.400;5.494;2022-11-25T05:35:17;100972.06;;;6.88;100.00
47897;BME280;39629;51.400;5.494;2022-11-25T05:40:21;100971.09;;;6.81;100.00
47897;BME280;39629;51.400;5.494;2022-11-25T05:45:38;100968.44;;;6.79;100.00
47897;BME280;39629;51.400;5.494;2022-11-25T05:50:42;100977.03;;;6.69;100.00
47897;BME280;39629;51.400;5.494;2022-11-25T05:55:54;100986.38;;;6.55;100.00
47897;BME280;39629;51.400;5.494;2022-11-25T06:01:18;100982.63;;;6.40;100.00
47897;BME280;39629;51.400;5.494;2022-11-25T06:06:20;100994.03;;;6.45;100.00
47897;BME280;39629;51.400;5.494;2022-11-25T06:11:22;100998.13;;;6.29;100.00
47897;BME280;39629;51.400;5.494;2022-11-25T06:16:26;100995.66;;;6.37;100.00
47897;BME280;39629;51.400;5.494;2022-11-25T06:21:40;100997.22;;;6.27;100.00
47897;BME280;39629;51.400;5.494;2022-11-25T06:26:41;101004.22;;;6.28;100.00
47897;BME280;39629;51.400;5.494;2022-11-25T06:31:47;101026.84;;;6.28;100.00
47897;BME280;39629;51.400;5.494;2022-11-25T06:37:03;101025.72;;;6.13;100.00
47897;BME280;39629;51.400;5.494;2022-11-25T06:42:05;101032.97;;;6.28;100.00
47897;BME280;39629;51.400;5.494;2022-11-25T06:47:08;101041.66;;;6.27;100.00
47897;BME280;39629;51.400;5.494;2022-11-25T06:52:10;101056.47;;;6.27;100.00
47897;BME280;39629;51.400;5.494;2022-11-25T06:57:15;101063.41;;;6.25;100.00
47897;BME280;39629;51.400;5.494;2022-11-25T07:02:19;101061.34;;;6.08;100.00
47897;BME280;39629;51.400;5.494;2022-11-25T07:07:20;101058.75;;;6.10;100.00
47897;BME280;39629;51.400;5.494;2022-11-25T07:12:22;101077.91;;;6.09;100.00
47897;BME280;39629;51.400;5.494;2022-11-25T07:17:25;101080.25;;;5.95;100.00
47897;BME280;39629;51.400;5.494;2022-11-25T07:22:26;101091.44;;;5.89;100.00
47897;BME280;39629;51.400;5.494;2022-11-25T07:27:28;101105.22;;;5.81;100.00
47897;BME280;39629;51.400;5.494;2022-11-25T07:32:33;101110.53;;;5.87;100.00
47897;BME280;39629;51.400;5.494;2022-11-25T07:37:35;101119.38;;;5.92;100.00
47897;BME280;39629;51.400;5.494;2022-11-25T07:42:37;101126.09;;;5.81;100.00
47897;BME280;39629;51.400;5.494;2022-11-25T07:47:43;101134.06;;;5.87;100.00
47897;BME280;39629;51.400;5.494;2022-11-25T07:52:45;101153.38;;;5.95;100.00
47897;BME280;39629;51.400;5.494;2022-11-25T07:57:46;101163.84;;;5.95;100.00
47897;BME280;39629;51.400;5.494;2022-11-25T08:02:49;101171.19;;;6.14;100.00
47897;BME280;39629;51.400;5.494;2022-11-25T08:07:52;101179.00;;;6.13;100.00
47897;BME280;39629;51.400;5.494;2022-11-25T08:12:54;101187.91;;;6.21;100.00
47897;BME280;39629;51.400;5.494;2022-11-25T08:17:57;101188.16;;;6.35;100.00
47897;BME280;39629;51.400;5.494;2022-11-25T08:22:58;101197.03;;;6.42;100.00
47897;BME280;39629;51.400;5.494;2022-11-25T08:28:00;101199.66;;;6.43;100.00
47897;BME280;39629;51.400;5.494;2022-11-25T08:33:03;101200.97;;;6.64;100.00
47897;BME280;39629;51.400;5.494;2022-11-25T08:38:08;101202.75;;;6.65;100.00
47897;BME280;39629;51.400;5.494;2022-11-25T08:43:10;101207.56;;;6.91;100.00
47897;BME280;39629;51.400;5.494;2022-11-25T08:48:13;101209.44;;;6.99;100.00
47897;BME280;39629;51.400;5.494;2022-11-25T08:53:15;101206.13;;;7.08;100.00
47897;BME280;39629;51.400;5.494;2022-11-25T08:58:17;101215.88;;;7.17;100.00
47897;BME280;39629;51.400;5.494;2022-11-25T09:03:20;101218.78;;;7.34;100.00
47897;BME280;39629;51.400;5.494;2022-11-25T09:08:21;101225.78;;;7.35;100.00
47897;BME280;39629;51.400;5.494;2022-11-25T09:13:24;101232.22;;;7.56;100.00
47897;BME280;39629;51.400;5.494;2022-11-25T09:18:27;101226.31;;;7.69;100.00
47897;BME280;39629;51.400;5.494;2022-11-25T09:23:29;101237.81;;;7.79;100.00
47897;BME280;39629;51.400;5.494;2022-11-25T09:28:31;101243.13;;;7.85;100.00
47897;BME280;39629;51.400;5.494;2022-11-25T09:33:35;101252.97;;;7.98;100.00
47897;BME280;39629;51.400;5.494;2022-11-25T09:38:36;101254.84;;;8.09;100.00
47897;BME280;39629;51.400;5.494;2022-11-25T09:43:48;101266.34;;;8.22;100.00
47897;BME280;39629;51.400;5.494;2022-11-25T09:49:25;101279.41;;;8.15;100.00
47897;BME280;39629;51.400;5.494;2022-11-25T09:54:35;101278.75;;;8.32;100.00
47897;BME280;39629;51.400;5.494;2022-11-25T09:59:40;101281.44;;;8.38;100.00
47897;BME280;39629;51.400;5.494;2022-11-25T10:04:49;101297.34;;;8.50;100.00
47897;BME280;39629;51.400;5.494;2022-11-25T10:09:53;101296.63;;;8.61;100.00
47897;BME280;39629;51.400;5.494;2022-11-25T10:14:59;101302.91;;;8.75;100.00
47897;BME280;39629;51.400;5.494;2022-11-25T10:20:06;101320.44;;;8.79;100.00
47897;BME280;39629;51.400;5.494;2022-11-25T10:25:15;101325.06;;;8.96;100.00
47897;BME280;39629;51.400;5.494;2022-11-25T10:30:20;101336.44;;;8.98;100.00
47897;BME280;39629;51.400;5.494;2022-11-25T10:35:30;101335.84;;;9.20;100.00
47897;BME280;39629;51.400;5.494;2022-11-25T10:40:33;101343.78;;;9.27;100.00
47897;BME280;39629;51.400;5.494;2022-11-25T10:45:40;101357.06;;;9.44;100.00
47897;BME280;39629;51.400;5.494;2022-11-25T10:51:00;101358.13;;;9.63;100.00
47897;BME280;39629;51.400;5.494;2022-11-25T10:56:09;101358.16;;;9.66;100.00
47897;BME280;39629;51.400;5.494;2022-11-25T11:01:16;101363.63;;;9.87;100.00
47897;BME280;39629;51.400;5.494;2022-11-25T11:06:39;101367.22;;;9.99;100.00
47897;BME280;39629;51.400;5.494;2022-11-25T11:11:46;101379.56;;;10.09;100.00
47897;BME280;39629;51.400;5.494;2022-11-25T11:16:51;101374.28;;;10.09;100.00
47897;BME280;39629;51.400;5.494;2022-11-25T11:21:55;101385.81;;;10.23;100.00
47897;BME280;39629;51.400;5.494;2022-11-25T11:27:02;101398.22;;;10.42;100.00
47897;BME280;39629;51.400;5.494;2022-11-25T11:32:06;101393.06;;;10.63;100.00
47897;BME280;39629;51.400;5.494;2022-11-25T11:37:21;101411.56;;;10.74;100.00
47897;BME280;39629;51.400;5.494;2022-11-25T11:42:35;101416.88;;;10.80;100.00
47897;BME280;39629;51.400;5.494;2022-11-25T11:47:55;101419.56;;;10.86;100.00
47897;BME280;39629;51.400;5.494;2022-11-25T11:53:08;101421.34;;;10.90;100.00
47897;BME280;39629;51.400;5.494;2022-11-25T11:58:16;101417.84;;;10.88;100.00
47897;BME280;39629;51.400;5.494;2022-11-25T12:03:23;101427.53;;;10.94;100.00
47897;BME280;39629;51.400;5.494;2022-11-25T12:08:32;101430.16;;;10.93;100.00
47897;BME280;39629;51.400;5.494;2022-11-25T12:13:42;101431.00;;;10.92;100.00
47897;BME280;39629;51.400;5.494;2022-11-25T12:18:48;101428.47;;;11.12;100.00
47897;BME280;39629;51.400;5.494;2022-11-25T12:23:57;101445.19;;;11.18;100.00
47897;BME280;39629;51.400;5.494;2022-11-25T12:29:07;101451.25;;;11.03;100.00
47897;BME280;39629;51.400;5.494;2022-11-25T12:34:14;101450.38;;;11.03;100.00
47897;BME280;39629;51.400;5.494;2022-11-25T12:39:23;101460.00;;;10.98;100.00
47897;BME280;39629;51.400;5.494;2022-11-25T12:44:32;101462.69;;;11.08;100.00
47897;BME280;39629;51.400;5.494;2022-11-25T12:49:39;101480.22;;;11.02;100.00
47897;BME280;39629;51.400;5.494;2022-11-25T12:55:08;101485.38;;;10.86;100.00
47897;BME280;39629;51.400;5.494;2022-11-25T13:00:17;101490.63;;;10.83;100.00
47897;BME280;39629;51.400;5.494;2022-11-25T13:05:56;101497.84;;;11.11;100.00
47897;BME280;39629;51.400;5.494;2022-11-25T13:11:19;101508.34;;;11.09;100.00
47897;BME280;39629;51.400;5.494;2022-11-25T13:16:25;101521.47;;;10.98;100.00
47897;BME280;39629;51.400;5.494;2022-11-25T13:21:27;101524.09;;;10.97;100.00
47897;BME280;39629;51.400;5.494;2022-11-25T13:26:47;101531.16;;;11.01;100.00
47897;BME280;39629;51.400;5.494;2022-11-25T13:31:56;101532.97;;;11.11;100.00
47897;BME280;39629;51.400;5.494;2022-11-25T13:37:00;101542.53;;;10.98;100.00
47897;BME280;39629;51.400;5.494;2022-11-25T13:42:12;101548.59;;;10.89;100.00
47897;BME280;39629;51.400;5.494;2022-11-25T13:47:27;101552.13;;;10.90;100.00
47897;BME280;39629;51.400;5.494;2022-11-25T13:52:35;101558.28;;;10.92;100.00
47897;BME280;39629;51.400;5.494;2022-11-25T13:57:40;101567.00;;;10.85;100.00
47897;BME280;39629;51.400;5.494;2022-11-25T14:02:44;101568.72;;;10.83;100.00
47897;BME280;39629;51.400;5.494;2022-11-25T14:07:51;101580.97;;;10.78;100.00
47897;BME280;39629;51.400;5.494;2022-11-25T14:13:10;101581.81;;;10.72;100.00
47897;BME280;39629;51.400;5.494;2022-11-25T14:24:10;101597.38;;;10.47;100.00
47897;BME280;39629;51.400;5.494;2022-11-25T14:29:20;101592.94;;;10.45;100.00
47897;BME280;39629;51.400;5.494;2022-11-25T14:34:28;101598.94;;;10.31;100.00
47897;BME280;39629;51.400;5.494;2022-11-25T14:39:35;101605.78;;;10.14;100.00
47897;BME280;39629;51.400;5.494;2022-11-25T14:44:45;101620.66;;;10.12;100.00
47897;BME280;39629;51.400;5.494;2022-11-25T14:49:48;101637.25;;;10.06;100.00
47897;BME280;39629;51.400;5.494;2022-11-25T14:54:53;101638.91;;;9.99;100.00
47897;BME280;39629;51.400;5.494;2022-11-25T15:00:01;101654.69;;;9.98;100.00
47897;BME280;39629;51.400;5.494;2022-11-25T15:05:15;101673.06;;;9.95;100.00
47897;BME280;39629;51.400;5.494;2022-11-25T15:10:35;101679.09;;;9.87;100.00
47897;BME280;39629;51.400;5.494;2022-11-25T15:15:43;101684.94;;;9.66;100.00
47897;BME280;39629;51.400;5.494;2022-11-25T15:20:47;101682.00;;;9.46;100.00
47897;BME280;39629;51.400;5.494;2022-11-25T15:25:50;101700.78;;;9.16;100.00
47897;BME280;39629;51.400;5.494;2022-11-25T15:31:01;101698.91;;;9.07;100.00
47897;BME280;39629;51.400;5.494;2022-11-25T15:36:03;101713.34;;;8.85;100.00
47897;BME280;39629;51.400;5.494;2022-11-25T15:41:11;101727.84;;;8.66;100.00
47897;BME280;39629;51.400;5.494;2022-11-25T15:46:16;101738.06;;;8.50;100.00
47897;BME280;39629;51.400;5.494;2022-11-25T15:51:30;101737.94;;;8.44;100.00
47897;BME280;39629;51.400;5.494;2022-11-25T15:56:36;101756.38;;;8.49;100.00
47897;BME280;39629;51.400;5.494;2022-11-25T16:01:41;101765.91;;;8.45;100.00
47897;BME280;39629;51.400;5.494;2022-11-25T16:06:52;101777.16;;;8.40;100.00
47897;BME280;39629;51.400;5.494;2022-11-25T16:12:03;101780.22;;;8.18;100.00
47897;BME280;39629;51.400;5.494;2022-11-25T16:17:09;101793.22;;;8.12;100.00
47897;BME280;39629;51.400;5.494;2022-11-25T16:22:14;101806.50;;;8.22;100.00
47897;BME280;39629;51.400;5.494;2022-11-25T16:27:19;101824.56;;;8.09;100.00
47897;BME280;39629;51.400;5.494;2022-11-25T16:32:24;101820.81;;;7.98;100.00
47897;BME280;39629;51.400;5.494;2022-11-25T16:37:26;101835.59;;;7.94;100.00
47897;BME280;39629;51.400;5.494;2022-11-25T16:42:28;101846.03;;;7.91;100.00
47897;BME280;39629;51.400;5.494;2022-11-25T16:47:31;101852.09;;;7.90;100.00
47897;BME280;39629;51.400;5.494;2022-11-25T16:52:32;101851.47;;;8.00;100.00
47897;BME280;39629;51.400;5.494;2022-11-25T16:57:34;101867.97;;;7.96;100.00
47897;BME280;39629;51.400;5.494;2022-11-25T17:02:38;101886.91;;;7.84;100.00
47897;BME280;39629;51.400;5.494;2022-11-25T17:07:40;101892.22;;;7.88;100.00
47897;BME280;39629;51.400;5.494;2022-11-25T17:12:42;101905.13;;;7.80;100.00
47897;BME280;39629;51.400;5.494;2022-11-25T17:17:46;101909.16;;;7.67;100.00
47897;BME280;39629;51.400;5.494;2022-11-25T17:22:48;101915.22;;;7.64;100.00
47897;BME280;39629;51.400;5.494;2022-11-25T17:27:50;101921.25;;;7.62;100.00
47897;BME280;39629;51.400;5.494;2022-11-25T17:32:57;101931.56;;;7.56;100.00
47897;BME280;39629;51.400;5.494;2022-11-25T17:38:00;101958.16;;;7.38;100.00
47897;BME280;39629;51.400;5.494;2022-11-25T17:43:01;101962.16;;;7.25;100.00
47897;BME280;39629;51.400;5.494;2022-11-25T17:48:08;101971.28;;;7.09;100.00
47897;BME280;39629;51.400;5.494;2022-11-25T17:53:10;101979.72;;;6.98;100.00
47897;BME280;39629;51.400;5.494;2022-11-25T17:58:12;101990.00;;;6.94;100.00
47897;BME280;39629;51.400;5.494;2022-11-25T18:03:16;101997.25;;;6.74;100.00
47897;BME280;39629;51.400;5.494;2022-11-25T18:08:18;102005.06;;;6.46;100.00
47897;BME280;39629;51.400;5.494;2022-11-25T18:13:20;102017.00;;;6.38;100.00
47897;BME280;39629;51.400;5.494;2022-11-25T18:18:24;102025.56;;;6.34;100.00
47897;BME280;39629;51.400;5.494;2022-11-25T18:23:26;102020.31;;;6.07;100.00
47897;BME280;39629;51.400;5.494;2022-11-25T18:28:29;102022.00;;;6.06;100.00
47897;BME280;39629;51.400;5.494;2022-11-25T18:33:33;102038.78;;;5.87;100.00
47897;BME280;39629;51.400;5.494;2022-11-25T18:38:35;102039.34;;;5.78;100.00
47897;BME280;39629;51.400;5.494;2022-11-25T18:43:36;102057.88;;;5.62;100.00
47897;BME280;39629;51.400;5.494;2022-11-25T18:48:39;102059.97;;;5.48;100.00
47897;BME280;39629;51.400;5.494;2022-11-25T18:53:42;102066.63;;;5.40;100.00
47897;BME280;39629;51.400;5.494;2022-11-25T18:58:48;102075.84;;;5.30;100.00
47897;BME280;39629;51.400;5.494;2022-11-25T19:03:52;102072.44;;;5.33;100.00
47897;BME280;39629;51.400;5.494;2022-11-25T19:08:55;102081.22;;;5.12;100.00
47897;BME280;39629;51.400;5.494;2022-11-25T19:14:00;102100.34;;;4.90;100.00
47897;BME280;39629;51.400;5.494;2022-11-25T19:19:04;102101.53;;;4.98;100.00
47897;BME280;39629;51.400;5.494;2022-11-25T19:24:10;102114.72;;;4.80;100.00
47897;BME280;39629;51.400;5.494;2022-11-25T19:29:16;102132.09;;;4.58;100.00
47897;BME280;39629;51.400;5.494;2022-11-25T19:34:25;102129.97;;;4.50;100.00
47897;BME280;39629;51.400;5.494;2022-11-25T19:39:27;102144.75;;;4.30;100.00
47897;BME280;39629;51.400;5.494;2022-11-25T19:44:29;102139.19;;;4.22;100.00
47897;BME280;39629;51.400;5.494;2022-11-25T19:49:32;102147.56;;;4.15;100.00
47897;BME280;39629;51.400;5.494;2022-11-25T19:54:34;102154.44;;;3.93;100.00
47897;BME280;39629;51.400;5.494;2022-11-25T19:59:35;102160.59;;;3.95;100.00
47897;BME280;39629;51.400;5.494;2022-11-25T20:04:38;102173.19;;;3.86;100.00
47897;BME280;39629;51.400;5.494;2022-11-25T20:09:42;102172.06;;;3.61;100.00
47897;BME280;39629;51.400;5.494;2022-11-25T20:14:44;102172.56;;;3.54;100.00
47897;BME280;39629;51.400;5.494;2022-11-25T20:19:47;102191.31;;;3.47;100.00
47897;BME280;39629;51.400;5.494;2022-11-25T20:24:49;102195.78;;;3.49;100.00
47897;BME280;39629;51.400;5.494;2022-11-25T20:29:51;102197.94;;;3.40;100.00
47897;BME280;39629;51.400;5.494;2022-11-25T20:34:54;102205.25;;;3.47;100.00
47897;BME280;39629;51.400;5.494;2022-11-25T20:39:57;102212.00;;;3.62;100.00
47897;BME280;39629;51.400;5.494;2022-11-25T20:45:00;102222.03;;;3.36;100.00
47897;BME280;39629;51.400;5.494;2022-11-25T20:50:03;102237.56;;;3.34;100.00
47897;BME280;39629;51.400;5.494;2022-11-25T20:55:13;102234.47;;;3.42;100.00
47897;BME280;39629;51.400;5.494;2022-11-25T21:00:17;102246.34;;;3.36;100.00
47897;BME280;39629;51.400;5.494;2022-11-25T21:05:21;102256.16;;;3.24;100.00
47897;BME280;39629;51.400;5.494;2022-11-25T21:10:25;102260.63;;;3.27;100.00
47897;BME280;39629;51.400;5.494;2022-11-25T21:15:27;102262.69;;;3.16;100.00
47897;BME280;39629;51.400;5.494;2022-11-25T21:20:30;102271.50;;;3.01;100.00
47897;BME280;39629;51.400;5.494;2022-11-25T21:25:33;102281.81;;;3.00;100.00
47897;BME280;39629;51.400;5.494;2022-11-25T21:30:35;102285.09;;;2.96;100.00
47897;BME280;39629;51.400;5.494;2022-11-25T21:35:38;102294.84;;;2.83;100.00
47897;BME280;39629;51.400;5.494;2022-11-25T21:40:43;102305.16;;;2.82;100.00
47897;BME280;39629;51.400;5.494;2022-11-25T21:45:45;102306.56;;;2.75;100.00
47897;BME280;39629;51.400;5.494;2022-11-25T21:50:48;102316.69;;;2.70;100.00
47897;BME280;39629;51.400;5.494;2022-11-25T21:55:50;102324.47;;;2.54;100.00
47897;BME280;39629;51.400;5.494;2022-11-25T22:00:54;102331.91;;;2.63;100.00
47897;BME280;39629;51.400;5.494;2022-11-25T22:05:57;102329.03;;;2.58;100.00
47897;BME280;39629;51.400;5.494;2022-11-25T22:10:59;102337.47;;;2.54;100.00
47897;BME280;39629;51.400;5.494;2022-11-25T22:16:00;102343.63;;;2.40;100.00
47897;BME280;39629;51.400;5.494;2022-11-25T22:21:04;102352.06;;;2.35;100.00
47897;BME280;39629;51.400;5.494;2022-11-25T22:26:06;102346.94;;;2.37;100.00
47897;BME280;39629;51.400;5.494;2022-11-25T22:31:12;102362.13;;;2.29;100.00
47897;BME280;39629;51.400;5.494;2022-11-25T22:36:28;102364.09;;;2.33;100.00
47897;BME280;39629;51.400;5.494;2022-11-25T22:41:31;102364.81;;;2.31;100.00
47897;BME280;39629;51.400;5.494;2022-11-25T22:46:34;102374.84;;;2.25;100.00
47897;BME280;39629;51.400;5.494;2022-11-25T22:51:38;102388.38;;;2.19;100.00
47897;BME280;39629;51.400;5.494;2022-11-25T22:56:39;102400.50;;;2.18;100.00
47897;BME280;39629;51.400;5.494;2022-11-25T23:01:41;102409.69;;;2.28;100.00
47897;BME280;39629;51.400;5.494;2022-11-25T23:06:45;102412.25;;;2.43;100.00
47897;BME280;39629;51.400;5.494;2022-11-25T23:11:47;102408.44;;;2.22;100.00
47897;BME280;39629;51.400;5.494;2022-11-25T23:16:48;102418.41;;;2.14;100.00
47897;BME280;39629;51.400;5.494;2022-11-25T23:21:51;102420.34;;;2.18;100.00
47897;BME280;39629;51.400;5.494;2022-11-25T23:26:53;102433.59;;;2.37;100.00
47897;BME280;39629;51.400;5.494;2022-11-25T23:31:55;102435.38;;;2.38;100.00
47897;BME280;39629;51.400;5.494;2022-11-25T23:36:58;102432.84;;;2.40;100.00
47897;BME280;39629;51.400;5.494;2022-11-25T23:42:00;102437.69;;;2.49;100.00
47897;BME280;39629;51.400;5.494;2022-11-25T23:47:03;102453.88;;;2.13;100.00
47897;BME280;39629;51.400;5.494;2022-11-25T23:52:09;102461.91;;;2.33;100.00
47897;BME280;39629;51.400;5.494;2022-11-25T23:57:13;102462.19;;;2.23;100.00
